Biloxi, MS

11:29 AM CDT on April 29, 2017 (GMT -0500)
Keesler Air Force Base | | Change Station
Active Advisory: Coastal Flood Advisory Active Notice: Coastal Flood Advisory

Elev 33 ft 30.41 °N, 88.92 °W | Updated 31 minutes ago

Mostly Cloudy
Mostly Cloudy
82 °F
Feels Like 88 °F
N
12
Wind Variable Wind from SSE

Today
High -- | Low -- °F
--% Chance of Precip.
Yesterday
High -- | Low -- °F
Precip. -- in
Pressure 30.00 in
Visibility 10.0 miles
Clouds Mostly Cloudy 1000 ft
Heat Index 88 °F
Dew Point 75 °F
Humidity 80%
Rainfall 0.00 in
Snow Depth Not available.
6:13 AM 7:32 PM
Waxing Crescent, 14% visible
METAR KBIX 291558Z AUTO 15010KT 10SM BKN010 28/24 A2999 RMK AO2 SLP158 T02750238
Pressure 30.00 in
Visibility 10.0 miles
Clouds Mostly Cloudy 1000 ft
Heat Index 88 °F
Dew Point 75 °F
Humidity 80%
Rainfall 0.00 in
Snow Depth Not available.
6:13 AM 7:32 PM
Waxing Crescent, 14% visible
METAR KBIX 291558Z AUTO 15010KT 10SM BKN010 28/24 A2999 RMK AO2 SLP158 T02750238

Get Your Daily Forecast Email!

Thanks for signing up!

Be on the lookout for a verification email in your inbox.

You'll start receiving severe weather alerts in your inbox..

×

10-Day Weather Forecast

Almanac

Astronomy

Apr. 29, 2017 Rise Set
Actual Time
Civil Twilight
Nautical Twilight
Astronomical Twilight
Moon
Length of Visible Light
Length of Day
Tomorrow will be .
, % of the Moon is Illuminated

Today's Extremes

State Highs State Lows

Community

WunderPhotos

WunderBlog® & News

Nearby

Air Quality

  Air Quality AQ Index Pollutant
Not available.

Snow Depth

Station Depth Elevation

Earthquake Activity

City Distance Mag. Time & Date
Minimum magnitude displayed is 2.5.

Coastal Water Temperatures

Place Temperature

Stations

Nearby Weather Stations

Station Location Temp. Windchill Dew Point Humidity Wind Precip. Elev Updated Type
                   

Watches & Warnings

Coastal Flood Advisory
Issued: 10:59 AM CDT Apr. 29, 2017 – National Weather Service

... Coastal flood advisory remains in effect until midnight CDT
Sunday night...

* coastal flooding... tides 1 to 2 feet above normal today and
Sunday

* timing... astronomical high tides will be in the early
afternoon hours Saturday and Sunday.

* Impacts... minor flooding of low lying areas and access roads
near tidal lakes... bays and inlets as well as the open coast
outside the hurricane protection levee systems.

Precautionary/preparedness actions...

A coastal flood advisory indicates that onshore winds and tides
will combine to generate flooding of low areas along the shore.